<?xml version="1.0" encoding="UTF-8" standalone="no" ?>
<gpx xmlns="http://www.topografix.com/GPX/1/1" xmlns:xsi="http://www.w3.org/2001/XMLSchema-instance" xsi:schemaLocation="http://www.topografix.com/GPX/1/1 http://www.topografix.com/GPX/1/1/gpx.xsd" version="1.1" creator="VisuGPX - https://www.visugpx.com">
  <metadata>
    <name>Treslon jeudi</name>
    <desc><![CDATA[Rando jeudi allure 5km 
sentiers et routes]]></desc>
  </metadata>
  <trk>
    <name><![CDATA[8412900-Treslon]]></name>
    <trkseg>
      <trkpt lat="49.24226" lon="3.82401">
        <ele>129</ele>
        <time>2018-03-07T17:54:33Z</time>
      </trkpt>
      <trkpt lat="49.24332" lon="3.82329">
        <ele>141</ele>
        <time>2018-03-07T17:55:33Z</time>
      </trkpt>
      <trkpt lat="49.24369" lon="3.82328">
        <ele>145</ele>
        <time>2018-03-07T17:56:33Z</time>
      </trkpt>
      <trkpt lat="49.24387" lon="3.82218">
        <ele>149</ele>
        <time>2018-03-07T17:57:33Z</time>
      </trkpt>
      <trkpt lat="49.24472" lon="3.8215">
        <ele>161</ele>
        <time>2018-03-07T17:58:33Z</time>
      </trkpt>
      <trkpt lat="49.24679" lon="3.81981">
        <ele>183</ele>
        <time>2018-03-07T17:59:33Z</time>
      </trkpt>
      <trkpt lat="49.24615" lon="3.81772">
        <ele>179</ele>
        <time>2018-03-07T18:00:33Z</time>
      </trkpt>
      <trkpt lat="49.24497" lon="3.81456">
        <ele>183</ele>
        <time>2018-03-07T18:01:33Z</time>
      </trkpt>
      <trkpt lat="49.24342" lon="3.81545">
        <ele>169</ele>
        <time>2018-03-07T18:02:33Z</time>
      </trkpt>
      <trkpt lat="49.24211" lon="3.81165">
        <ele>165</ele>
        <time>2018-03-07T18:03:33Z</time>
      </trkpt>
      <trkpt lat="49.24235" lon="3.81111">
        <ele>170</ele>
        <time>2018-03-07T18:04:33Z</time>
      </trkpt>
      <trkpt lat="49.24208" lon="3.81043">
        <ele>170</ele>
        <time>2018-03-07T18:05:33Z</time>
      </trkpt>
      <trkpt lat="49.24167" lon="3.80932">
        <ele>170</ele>
        <time>2018-03-07T18:06:33Z</time>
      </trkpt>
      <trkpt lat="49.24121" lon="3.80959">
        <ele>163</ele>
        <time>2018-03-07T18:07:33Z</time>
      </trkpt>
      <trkpt lat="49.24042" lon="3.80804">
        <ele>166</ele>
        <time>2018-03-07T18:08:33Z</time>
      </trkpt>
      <trkpt lat="49.23915" lon="3.80684">
        <ele>164</ele>
        <time>2018-03-07T18:09:33Z</time>
      </trkpt>
      <trkpt lat="49.23884" lon="3.807">
        <ele>160</ele>
        <time>2018-03-07T18:10:33Z</time>
      </trkpt>
      <trkpt lat="49.23842" lon="3.80598">
        <ele>159</ele>
        <time>2018-03-07T18:11:33Z</time>
      </trkpt>
      <trkpt lat="49.24015" lon="3.8042">
        <ele>167</ele>
        <time>2018-03-07T18:12:33Z</time>
      </trkpt>
      <trkpt lat="49.24053" lon="3.80438">
        <ele>171</ele>
        <time>2018-03-07T18:13:33Z</time>
      </trkpt>
      <trkpt lat="49.24069" lon="3.80349">
        <ele>172</ele>
        <time>2018-03-07T18:14:33Z</time>
      </trkpt>
      <trkpt lat="49.23931" lon="3.80149">
        <ele>167</ele>
        <time>2018-03-07T18:15:33Z</time>
      </trkpt>
      <trkpt lat="49.23913" lon="3.80011">
        <ele>170</ele>
        <time>2018-03-07T18:16:33Z</time>
      </trkpt>
      <trkpt lat="49.24027" lon="3.79988">
        <ele>177</ele>
        <time>2018-03-07T18:17:33Z</time>
      </trkpt>
      <trkpt lat="49.2414" lon="3.79648">
        <ele>170</ele>
        <time>2018-03-07T18:18:33Z</time>
      </trkpt>
      <trkpt lat="49.24027" lon="3.79538">
        <ele>159</ele>
        <time>2018-03-07T18:19:33Z</time>
      </trkpt>
      <trkpt lat="49.24138" lon="3.79601">
        <ele>165</ele>
        <time>2018-03-07T18:20:33Z</time>
      </trkpt>
      <trkpt lat="49.24204" lon="3.794">
        <ele>159</ele>
        <time>2018-03-07T18:21:33Z</time>
      </trkpt>
      <trkpt lat="49.24296" lon="3.79128">
        <ele>157</ele>
        <time>2018-03-07T18:22:33Z</time>
      </trkpt>
      <trkpt lat="49.24248" lon="3.79007">
        <ele>148</ele>
        <time>2018-03-07T18:23:33Z</time>
      </trkpt>
      <trkpt lat="49.24368" lon="3.7888">
        <ele>124</ele>
        <time>2018-03-07T18:24:33Z</time>
      </trkpt>
      <trkpt lat="49.23966" lon="3.79228">
        <ele>121</ele>
        <time>2018-03-07T18:25:33Z</time>
      </trkpt>
      <trkpt lat="49.24408" lon="3.78524">
        <ele>99</ele>
        <time>2018-03-07T18:26:33Z</time>
      </trkpt>
      <trkpt lat="49.24436" lon="3.78481">
        <ele>97</ele>
        <time>2018-03-07T18:27:33Z</time>
      </trkpt>
      <trkpt lat="49.24449" lon="3.78341">
        <ele>99</ele>
        <time>2018-03-07T18:28:33Z</time>
      </trkpt>
      <trkpt lat="49.24368" lon="3.7823">
        <ele>100</ele>
        <time>2018-03-07T18:29:33Z</time>
      </trkpt>
      <trkpt lat="49.24451" lon="3.78104">
        <ele>105</ele>
        <time>2018-03-07T18:30:33Z</time>
      </trkpt>
      <trkpt lat="49.24442" lon="3.78003">
        <ele>105</ele>
        <time>2018-03-07T18:31:33Z</time>
      </trkpt>
      <trkpt lat="49.24222" lon="3.77879">
        <ele>97</ele>
        <time>2018-03-07T18:32:33Z</time>
      </trkpt>
      <trkpt lat="49.24079" lon="3.7767">
        <ele>82</ele>
        <time>2018-03-07T18:33:33Z</time>
      </trkpt>
      <trkpt lat="49.23896" lon="3.77491">
        <ele>86</ele>
        <time>2018-03-07T18:34:33Z</time>
      </trkpt>
      <trkpt lat="49.23789" lon="3.77328">
        <ele>93</ele>
        <time>2018-03-07T18:35:33Z</time>
      </trkpt>
      <trkpt lat="49.23682" lon="3.77165">
        <ele>103</ele>
        <time>2018-03-07T18:36:33Z</time>
      </trkpt>
      <trkpt lat="49.23572" lon="3.77399">
        <ele>97</ele>
        <time>2018-03-07T18:37:33Z</time>
      </trkpt>
      <trkpt lat="49.23472" lon="3.77588">
        <ele>96</ele>
        <time>2018-03-07T18:38:33Z</time>
      </trkpt>
      <trkpt lat="49.2313" lon="3.78255">
        <ele>96</ele>
        <time>2018-03-07T18:39:33Z</time>
      </trkpt>
      <trkpt lat="49.22956" lon="3.78748">
        <ele>95</ele>
        <time>2018-03-07T18:40:33Z</time>
      </trkpt>
      <trkpt lat="49.22485" lon="3.78857">
        <ele>113</ele>
        <time>2018-03-07T18:41:33Z</time>
      </trkpt>
      <trkpt lat="49.225" lon="3.78954">
        <ele>114</ele>
        <time>2018-03-07T18:42:33Z</time>
      </trkpt>
      <trkpt lat="49.22599" lon="3.79203">
        <ele>106</ele>
        <time>2018-03-07T18:43:33Z</time>
      </trkpt>
      <trkpt lat="49.22619" lon="3.7935">
        <ele>103</ele>
        <time>2018-03-07T18:44:33Z</time>
      </trkpt>
      <trkpt lat="49.22614" lon="3.7956">
        <ele>103</ele>
        <time>2018-03-07T18:45:33Z</time>
      </trkpt>
      <trkpt lat="49.2262" lon="3.79758">
        <ele>97</ele>
        <time>2018-03-07T18:46:33Z</time>
      </trkpt>
      <trkpt lat="49.22504" lon="3.80153">
        <ele>103</ele>
        <time>2018-03-07T18:47:33Z</time>
      </trkpt>
      <trkpt lat="49.22541" lon="3.80236">
        <ele>102</ele>
        <time>2018-03-07T18:48:33Z</time>
      </trkpt>
      <trkpt lat="49.22613" lon="3.80339">
        <ele>98</ele>
        <time>2018-03-07T18:49:33Z</time>
      </trkpt>
      <trkpt lat="49.22601" lon="3.80431">
        <ele>94</ele>
        <time>2018-03-07T18:50:33Z</time>
      </trkpt>
      <trkpt lat="49.22568" lon="3.80523">
        <ele>93</ele>
        <time>2018-03-07T18:51:33Z</time>
      </trkpt>
      <trkpt lat="49.22629" lon="3.80611">
        <ele>90</ele>
        <time>2018-03-07T18:52:33Z</time>
      </trkpt>
      <trkpt lat="49.22584" lon="3.80678">
        <ele>90</ele>
        <time>2018-03-07T18:53:33Z</time>
      </trkpt>
      <trkpt lat="49.22677" lon="3.80889">
        <ele>93</ele>
        <time>2018-03-07T18:54:33Z</time>
      </trkpt>
      <trkpt lat="49.22619" lon="3.81103">
        <ele>97</ele>
        <time>2018-03-07T18:55:33Z</time>
      </trkpt>
      <trkpt lat="49.22653" lon="3.81227">
        <ele>105</ele>
        <time>2018-03-07T18:56:33Z</time>
      </trkpt>
      <trkpt lat="49.22795" lon="3.81579">
        <ele>118</ele>
        <time>2018-03-07T18:57:33Z</time>
      </trkpt>
      <trkpt lat="49.22822" lon="3.81716">
        <ele>120</ele>
        <time>2018-03-07T18:58:33Z</time>
      </trkpt>
      <trkpt lat="49.23143" lon="3.82138">
        <ele>157</ele>
        <time>2018-03-07T18:59:33Z</time>
      </trkpt>
      <trkpt lat="49.23179" lon="3.82206">
        <ele>162</ele>
        <time>2018-03-07T19:00:33Z</time>
      </trkpt>
      <trkpt lat="49.23223" lon="3.82154">
        <ele>156</ele>
        <time>2018-03-07T19:01:33Z</time>
      </trkpt>
      <trkpt lat="49.23248" lon="3.82126">
        <ele>152</ele>
        <time>2018-03-07T19:02:33Z</time>
      </trkpt>
      <trkpt lat="49.2328" lon="3.82066">
        <ele>141</ele>
        <time>2018-03-07T19:03:33Z</time>
      </trkpt>
      <trkpt lat="49.23378" lon="3.82347">
        <ele>143</ele>
        <time>2018-03-07T19:04:33Z</time>
      </trkpt>
      <trkpt lat="49.23369" lon="3.8242">
        <ele>150</ele>
        <time>2018-03-07T19:05:33Z</time>
      </trkpt>
      <trkpt lat="49.23454" lon="3.826">
        <ele>149</ele>
        <time>2018-03-07T19:06:33Z</time>
      </trkpt>
      <trkpt lat="49.23496" lon="3.82665">
        <ele>145</ele>
        <time>2018-03-07T19:07:33Z</time>
      </trkpt>
      <trkpt lat="49.23541" lon="3.8273">
        <ele>141</ele>
        <time>2018-03-07T19:08:33Z</time>
      </trkpt>
      <trkpt lat="49.23555" lon="3.8282">
        <ele>142</ele>
        <time>2018-03-07T19:09:33Z</time>
      </trkpt>
      <trkpt lat="49.23684" lon="3.82666">
        <ele>122</ele>
        <time>2018-03-07T19:10:33Z</time>
      </trkpt>
      <trkpt lat="49.2393" lon="3.82542">
        <ele>109</ele>
        <time>2018-03-07T19:11:33Z</time>
      </trkpt>
      <trkpt lat="49.24037" lon="3.82542">
        <ele>112</ele>
        <time>2018-03-07T19:12:33Z</time>
      </trkpt>
      <trkpt lat="49.24138" lon="3.8249">
        <ele>120</ele>
        <time>2018-03-07T19:13:33Z</time>
      </trkpt>
      <trkpt lat="49.24126" lon="3.82421">
        <ele>121</ele>
        <time>2018-03-07T19:14:33Z</time>
      </trkpt>
      <trkpt lat="49.24297" lon="3.82318">
        <ele>138</ele>
        <time>2018-03-07T19:15:33Z</time>
      </trkpt>
    </trkseg>
  </trk>
</gpx>